createdAt,value
2023-03-24T00:00:38.290Z,86.10
2023-03-24T00:03:06.395Z,85.58
2023-03-24T00:05:34.337Z,85.84
2023-03-24T00:08:04.701Z,85.96
2023-03-24T00:10:34.838Z,85.79
2023-03-24T00:13:03.498Z,85.90
2023-03-24T00:15:33.838Z,86.17
2023-03-24T00:18:02.104Z,86.17
2023-03-24T00:20:29.940Z,85.93
2023-03-24T00:22:58.950Z,86.39
2023-03-24T00:25:29.199Z,86.75
2023-03-24T00:27:58.034Z,86.45
2023-03-24T00:30:26.924Z,86.52
2023-03-24T00:32:59.027Z,86.53
2023-03-24T00:35:27.344Z,86.92
2023-03-24T00:37:55.202Z,86.45
2023-03-24T00:40:23.554Z,86.51
2023-03-24T00:42:53.142Z,86.62
2023-03-24T00:45:23.238Z,86.48
2023-03-24T00:47:54.157Z,86.31
2023-03-24T00:50:27.147Z,86.38
2023-03-24T00:52:55.780Z,86.91
2023-03-24T00:55:23.881Z,86.44
2023-03-24T00:57:51.923Z,86.82
2023-03-24T01:00:21.591Z,86.38
2023-03-24T01:02:53.755Z,86.95
2023-03-24T01:05:24.675Z,86.75
2023-03-24T01:07:53.154Z,87.01
2023-03-24T01:10:26.207Z,87.08
2023-03-24T01:12:55.128Z,86.51
2023-03-24T01:15:24.722Z,86.60
2023-03-24T01:17:53.594Z,86.31
2023-03-24T01:20:23.789Z,86.79
2023-03-24T01:22:52.222Z,86.47
2023-03-24T01:25:23.181Z,86.50
2023-03-24T01:27:52.389Z,86.83
2023-03-24T01:30:25.276Z,86.12
2023-03-24T01:32:54.235Z,86.63
2023-03-24T01:35:28.427Z,86.77
2023-03-24T01:37:57.475Z,86.49
2023-03-24T01:40:27.886Z,86.43
2023-03-24T01:42:56.404Z,86.46
2023-03-24T01:45:50.451Z,86.52
2023-03-24T01:48:21.265Z,86.36
2023-03-24T01:51:02.765Z,86.37
2023-03-24T01:53:31.463Z,86.19
2023-03-24T01:56:00.190Z,86.04
2023-03-24T01:58:29.770Z,85.59
2023-03-24T02:00:58.063Z,86.02
2023-03-24T02:03:30.100Z,85.90
2023-03-24T02:06:02.457Z,85.28
2023-03-24T02:08:34.401Z,85.72
2023-03-24T02:11:03.346Z,85.81
2023-03-24T02:13:31.203Z,85.94
2023-03-24T02:16:09.844Z,85.43
2023-03-24T02:18:44.957Z,85.69
2023-03-24T02:22:00.256Z,85.39
2023-03-24T02:25:03.781Z,85.24
2023-03-24T02:27:47.424Z,85.08
2023-03-24T02:30:33.100Z,85.60
2023-03-24T02:33:43.293Z,85.19
2023-03-24T02:36:48.489Z,84.95
2023-03-24T02:39:42.311Z,84.65
2023-03-24T02:42:18.406Z,84.65
2023-03-24T02:44:52.982Z,84.48
2023-03-24T02:47:25.948Z,84.31
2023-03-24T02:49:58.195Z,83.70
2023-03-24T02:52:32.522Z,84.29
2023-03-24T02:55:03.575Z,84.25
2023-03-24T02:57:33.962Z,84.06
2023-03-24T03:02:42.743Z,83.68
2023-03-24T03:05:15.193Z,83.85
2023-03-24T03:07:44.772Z,83.62
2023-03-24T03:10:16.924Z,84.35
2023-03-24T03:12:48.573Z,84.23
2023-03-24T03:15:20.552Z,83.63
2023-03-24T03:17:50.778Z,83.82
2023-03-24T03:20:21.730Z,83.86
2023-03-24T03:22:51.787Z,83.28
2023-03-24T03:25:23.877Z,83.60
2023-03-24T03:27:53.059Z,83.53
2023-03-24T03:30:24.375Z,83.53
2023-03-24T03:32:57.211Z,83.54
2023-03-24T03:35:29.239Z,83.59
2023-03-24T03:38:01.081Z,83.05
2023-03-24T03:40:32.899Z,83.36
2023-03-24T03:43:00.767Z,83.04
2023-03-24T03:45:28.600Z,83.42
2023-03-24T03:47:56.548Z,83.27
2023-03-24T03:50:24.435Z,83.37
2023-03-24T03:52:53.762Z,83.30
2023-03-24T03:55:22.264Z,83.05
2023-03-24T03:57:51.952Z,83.21
2023-03-24T04:00:23.596Z,83.22
2023-03-24T04:03:08.532Z,83.12
2023-03-24T04:05:37.921Z,83.81
2023-03-24T04:08:12.155Z,84.32
2023-03-24T04:11:04.341Z,83.68
2023-03-24T04:13:37.311Z,84.35
2023-03-24T04:16:09.932Z,84.26
2023-03-24T04:18:46.028Z,84.40
2023-03-24T04:21:33.420Z,84.39
2023-03-24T04:24:11.772Z,84.98
2023-03-24T04:26:47.131Z,85.14
2023-03-24T04:29:19.590Z,85.21
2023-03-24T04:31:53.425Z,85.29
2023-03-24T04:34:22.118Z,85.80
2023-03-24T04:36:54.423Z,85.93
2023-03-24T04:39:28.101Z,85.59
2023-03-24T04:41:56.329Z,85.97
2023-03-24T04:44:26.504Z,86.38
2023-03-24T04:46:57.697Z,86.40
2023-03-24T04:49:27.222Z,86.81
2023-03-24T04:51:55.597Z,86.77
2023-03-24T04:54:23.930Z,86.81
2023-03-24T04:56:53.512Z,86.95
2023-03-24T04:59:21.643Z,87.24
2023-03-24T05:01:50.831Z,87.36
2023-03-24T05:04:19.110Z,86.93
2023-03-24T05:06:49.674Z,87.21
2023-03-24T05:09:18.751Z,87.43
2023-03-24T05:11:46.821Z,87.40
2023-03-24T05:14:15.065Z,87.55
2023-03-24T05:16:43.024Z,87.44
2023-03-24T05:19:12.380Z,87.67
2023-03-24T05:21:40.200Z,87.80
2023-03-24T05:24:08.201Z,87.93
2023-03-24T05:26:36.168Z,88.23
2023-03-24T05:29:03.987Z,88.19
2023-03-24T05:31:31.857Z,88.60
2023-03-24T05:33:59.624Z,88.29
2023-03-24T05:36:28.862Z,88.58
2023-03-24T05:38:56.660Z,88.72
2023-03-24T05:41:24.456Z,88.56
2023-03-24T05:43:52.268Z,88.66
2023-03-24T05:46:20.466Z,88.68
2023-03-24T05:48:48.232Z,88.87
2023-03-24T05:51:16.031Z,88.83
2023-03-24T05:53:45.170Z,89.10
2023-03-24T05:56:13.037Z,88.69
2023-03-24T05:58:40.850Z,88.88
2023-03-24T06:01:10.315Z,88.92
2023-03-24T06:03:39.001Z,88.62
2023-03-24T06:06:08.401Z,88.56
2023-03-24T06:08:38.358Z,88.91
2023-03-24T06:11:07.895Z,88.54
2023-03-24T06:13:36.406Z,88.86
2023-03-24T06:16:04.347Z,88.76
2023-03-24T06:18:33.596Z,89.23
2023-03-24T06:21:01.467Z,88.64
2023-03-24T06:23:30.071Z,88.82
2023-03-24T06:25:59.084Z,88.70
2023-03-24T06:28:30.374Z,89.29
2023-03-24T06:30:58.933Z,88.88
2023-03-24T06:33:26.884Z,89.13
2023-03-24T06:35:54.787Z,88.96
2023-03-24T06:38:22.645Z,89.01
2023-03-24T06:40:50.469Z,89.07
2023-03-24T06:43:18.324Z,89.18
2023-03-24T06:45:47.653Z,88.64
2023-03-24T06:48:15.607Z,89.28
2023-03-24T06:50:43.892Z,89.27
2023-03-24T06:53:11.861Z,89.17
2023-03-24T06:55:39.667Z,89.45
2023-03-24T06:58:07.424Z,89.02
2023-03-24T07:00:35.569Z,88.85
2023-03-24T07:03:06.357Z,89.02
2023-03-24T07:05:35.826Z,88.44
2023-03-24T07:08:29.776Z,88.96
2023-03-24T07:10:51.710Z,88.94
2023-03-24T07:13:19.527Z,88.92
2023-03-24T07:15:47.399Z,88.82
2023-03-24T07:18:16.642Z,88.90
2023-03-24T07:20:44.599Z,88.73
2023-03-24T07:23:12.688Z,88.76
2023-03-24T07:25:41.230Z,88.75
2023-03-24T07:28:09.380Z,88.48
2023-03-24T07:30:52.058Z,88.44
2023-03-24T07:33:24.469Z,88.48
2023-03-24T07:35:55.751Z,88.56
2023-03-24T07:38:23.544Z,88.38
2023-03-24T07:40:51.338Z,88.27
2023-03-24T07:43:19.170Z,88.54
2023-03-24T07:45:47.698Z,88.49
2023-03-24T07:48:16.044Z,88.35
2023-03-24T07:50:45.407Z,88.09
2023-03-24T07:53:15.052Z,88.52
2023-03-24T07:55:43.109Z,88.49
2023-03-24T07:58:11.481Z,88.08
2023-03-24T08:00:39.610Z,87.82
2023-03-24T08:03:09.681Z,87.94
2023-03-24T08:05:38.560Z,88.01
2023-03-24T08:08:07.827Z,88.36
2023-03-24T08:10:35.917Z,88.34
2023-03-24T08:13:04.023Z,88.54
2023-03-24T08:15:31.832Z,88.08
2023-03-24T08:17:59.869Z,88.50
2023-03-24T08:20:29.580Z,88.92
2023-03-24T08:22:57.410Z,88.51
2023-03-24T08:25:27.339Z,88.73
2023-03-24T08:27:55.929Z,88.77
2023-03-24T08:30:26.299Z,88.75
2023-03-24T08:32:55.696Z,89.09
2023-03-24T08:35:26.139Z,88.82
2023-03-24T08:37:54.141Z,88.93
2023-03-24T08:40:24.263Z,89.32
2023-03-24T08:42:55.098Z,89.27
2023-03-24T08:45:24.174Z,89.57
2023-03-24T08:47:53.259Z,89.82
2023-03-24T08:50:22.087Z,89.68
2023-03-24T08:52:50.122Z,89.90
2023-03-24T08:55:18.945Z,89.88
2023-03-24T08:57:47.096Z,90.22
2023-03-24T09:00:18.481Z,89.83
2023-03-24T09:02:47.999Z,90.09
2023-03-24T09:05:20.035Z,89.52
2023-03-24T09:07:52.762Z,89.59
2023-03-24T09:10:22.496Z,89.69
2023-03-24T09:12:50.888Z,89.76
2023-03-24T09:15:20.250Z,89.84
2023-03-24T09:17:48.060Z,89.96
2023-03-24T09:20:17.166Z,88.95
2023-03-24T09:22:46.855Z,88.10
2023-03-24T09:25:16.812Z,86.68
2023-03-24T09:27:45.087Z,86.29
2023-03-24T09:30:15.072Z,84.93
2023-03-24T09:32:45.148Z,84.22
2023-03-24T09:35:13.631Z,84.37
2023-03-24T09:37:43.268Z,84.10
2023-03-24T09:40:19.828Z,83.84
2023-03-24T09:42:51.611Z,83.70
2023-03-24T09:45:21.977Z,83.80
2023-03-24T09:47:54.702Z,83.54
2023-03-24T09:50:24.517Z,83.92
2023-03-24T09:52:55.394Z,83.90
2023-03-24T09:55:26.595Z,84.01
2023-03-24T09:57:55.375Z,83.76
2023-03-24T10:00:25.077Z,83.72
2023-03-24T10:02:57.376Z,83.08
2023-03-24T10:05:29.888Z,83.33
2023-03-24T10:08:01.403Z,83.42
2023-03-24T10:10:36.207Z,83.64
2023-03-24T10:13:08.171Z,83.23
2023-03-24T10:15:41.280Z,83.30
2023-03-24T10:18:25.256Z,82.77
2023-03-24T10:20:55.345Z,83.02
2023-03-24T10:23:29.624Z,82.92
2023-03-24T10:26:01.720Z,82.70
2023-03-24T10:28:34.678Z,82.60
2023-03-24T10:31:04.686Z,82.38
2023-03-24T10:33:34.358Z,82.12
2023-03-24T10:36:05.309Z,82.45
2023-03-24T10:38:35.697Z,82.41
2023-03-24T10:41:03.893Z,81.29
2023-03-24T10:43:32.251Z,80.27
2023-03-24T10:46:01.250Z,79.79
2023-03-24T10:48:44.210Z,79.93
2023-03-24T10:51:17.367Z,78.63
2023-03-24T10:53:47.870Z,78.72
2023-03-24T10:56:19.988Z,78.23
2023-03-24T10:58:48.636Z,78.49
2023-03-24T11:01:26.285Z,78.27
2023-03-24T11:04:00.749Z,77.91
2023-03-24T11:06:28.652Z,78.31
2023-03-24T11:09:11.580Z,78.17
2023-03-24T11:11:39.403Z,77.83
2023-03-24T11:14:20.804Z,77.89
2023-03-24T11:16:48.749Z,76.99
2023-03-24T11:19:22.436Z,75.64
2023-03-24T11:21:53.066Z,73.62
2023-03-24T11:24:21.696Z,71.72
2023-03-24T11:26:55.764Z,69.76
2023-03-24T11:29:25.804Z,69.22
2023-03-24T11:31:56.282Z,66.66
2023-03-24T11:34:27.176Z,68.00
2023-03-24T11:36:56.002Z,68.43
2023-03-24T11:39:25.237Z,66.78
2023-03-24T11:42:01.760Z,65.55
2023-03-24T11:44:33.199Z,61.01
2023-03-24T11:47:05.070Z,60.83
2023-03-24T11:49:36.352Z,62.09
2023-03-24T11:52:05.770Z,59.02
2023-03-24T11:54:36.232Z,59.52
2023-03-24T11:57:06.221Z,59.80
2023-03-24T11:59:38.529Z,56.35
2023-03-24T12:02:14.477Z,56.36
2023-03-24T12:05:15.327Z,54.97
2023-03-24T12:08:02.898Z,54.04
2023-03-24T12:10:51.446Z,52.92
2023-03-24T12:13:32.820Z,53.15
2023-03-24T12:16:10.573Z,50.98
2023-03-24T12:18:44.401Z,51.12
2023-03-24T12:21:20.913Z,50.62
2023-03-24T12:23:55.984Z,51.27
2023-03-24T12:26:25.096Z,50.79
2023-03-24T12:28:57.161Z,50.35
2023-03-24T12:31:49.631Z,50.04
2023-03-24T12:34:34.802Z,50.05
2023-03-24T12:37:07.749Z,48.90
2023-03-24T12:39:37.563Z,50.34
2023-03-24T12:42:10.519Z,48.88
2023-03-24T12:45:05.561Z,50.15
2023-03-24T12:48:01.103Z,50.57
2023-03-24T12:50:37.962Z,50.50
2023-03-24T12:53:23.763Z,50.36
2023-03-24T12:55:53.583Z,49.28
2023-03-24T12:58:24.717Z,49.33
2023-03-24T13:01:00.184Z,48.85
2023-03-24T13:03:30.815Z,49.29
2023-03-24T13:06:10.951Z,48.86
2023-03-24T13:08:50.698Z,48.86
2023-03-24T13:11:32.288Z,48.91
2023-03-24T13:14:02.588Z,50.21
2023-03-24T13:16:32.958Z,46.99
2023-03-24T13:19:02.746Z,47.47
2023-03-24T13:21:35.237Z,46.02
2023-03-24T13:24:10.021Z,45.33
2023-03-24T13:26:40.722Z,45.41
2023-03-24T13:29:17.369Z,45.46
2023-03-24T13:31:47.983Z,45.98
2023-03-24T13:34:24.729Z,44.26
2023-03-24T13:36:55.835Z,44.96
2023-03-24T13:39:27.044Z,43.42
2023-03-24T13:41:57.228Z,41.93
2023-03-24T13:44:26.692Z,42.10
2023-03-24T13:47:05.471Z,41.25
2023-03-24T13:49:33.613Z,40.88
2023-03-24T13:52:05.334Z,40.31
2023-03-24T13:54:37.431Z,41.14
2023-03-24T13:57:07.194Z,40.79
2023-03-24T13:59:41.714Z,40.01
2023-03-24T14:02:24.728Z,40.04
2023-03-24T14:05:05.076Z,39.35
2023-03-24T14:07:35.813Z,38.18
2023-03-24T14:10:41.719Z,38.47
2023-03-24T14:13:26.017Z,39.32
2023-03-24T14:15:54.996Z,38.33
2023-03-24T14:18:42.612Z,39.71
2023-03-24T14:21:10.913Z,40.22
2023-03-24T14:23:40.368Z,40.83
2023-03-24T14:26:14.393Z,40.96
2023-03-24T14:28:42.881Z,40.52
2023-03-24T14:31:19.919Z,40.83
2023-03-24T14:34:02.441Z,41.05
2023-03-24T14:36:32.838Z,41.85
2023-03-24T14:39:09.359Z,41.69
2023-03-24T14:41:41.792Z,42.71
2023-03-24T14:44:09.563Z,42.36
2023-03-24T14:46:42.229Z,42.05
2023-03-24T14:49:24.611Z,42.33
2023-03-24T14:51:58.510Z,41.48
2023-03-24T14:54:31.584Z,42.23
2023-03-24T14:57:00.987Z,41.13
2023-03-24T14:59:41.090Z,40.52
2023-03-24T15:02:19.498Z,41.73
2023-03-24T15:05:20.529Z,40.91
2023-03-24T15:08:01.479Z,41.13
2023-03-24T15:10:34.868Z,41.58
2023-03-24T15:13:04.455Z,40.98
2023-03-24T15:15:32.379Z,41.77
2023-03-24T15:18:00.379Z,40.98
2023-03-24T15:20:30.318Z,42.69
2023-03-24T15:23:07.152Z,41.93
2023-03-24T15:25:35.044Z,41.70
2023-03-24T15:28:13.351Z,41.83
2023-03-24T15:30:41.220Z,42.24
2023-03-24T15:33:11.583Z,43.02
2023-03-24T15:35:39.410Z,43.60
2023-03-24T15:38:07.663Z,43.40
2023-03-24T15:40:37.794Z,43.91
2023-03-24T15:43:09.270Z,43.32
2023-03-24T15:45:39.185Z,42.53
2023-03-24T15:48:09.506Z,43.58
2023-03-24T15:50:39.192Z,43.20
2023-03-24T15:53:22.401Z,43.58
2023-03-24T15:56:03.738Z,44.55
2023-03-24T15:58:46.979Z,44.39
2023-03-24T16:01:17.868Z,45.12
2023-03-24T16:03:48.489Z,45.55
2023-03-24T16:06:17.483Z,45.04
2023-03-24T16:08:46.071Z,44.76
2023-03-24T16:11:14.940Z,45.48
2023-03-24T16:13:45.740Z,43.91
2023-03-24T16:16:24.861Z,42.56
2023-03-24T16:18:53.146Z,42.03
2023-03-24T16:21:23.000Z,42.12
2023-03-24T16:23:52.083Z,41.03
2023-03-24T16:26:21.483Z,42.17
2023-03-24T16:28:51.093Z,40.62
2023-03-24T16:31:24.499Z,41.24
2023-03-24T16:33:52.673Z,40.70
2023-03-24T16:36:22.182Z,39.34
2023-03-24T16:38:50.424Z,39.41
2023-03-24T16:41:18.354Z,39.98
2023-03-24T16:43:46.667Z,39.79
2023-03-24T16:46:18.009Z,39.91
2023-03-24T16:48:45.951Z,40.24
2023-03-24T16:51:15.918Z,40.82
2023-03-24T16:53:44.799Z,41.01
2023-03-24T16:56:14.964Z,41.00
2023-03-24T16:58:42.869Z,41.77
2023-03-24T17:01:27.008Z,42.63
2023-03-24T17:03:55.792Z,43.32
2023-03-24T17:06:24.725Z,43.92
2023-03-24T17:08:52.824Z,43.52
2023-03-24T17:11:27.266Z,44.21
2023-03-24T17:13:57.242Z,44.92
2023-03-24T17:16:27.885Z,45.05
2023-03-24T17:18:55.844Z,45.48
2023-03-24T17:21:23.751Z,45.87
2023-03-24T17:23:55.070Z,46.86
2023-03-24T17:26:23.778Z,47.10
2023-03-24T17:28:51.629Z,47.70
2023-03-24T17:31:20.412Z,48.95
2023-03-24T17:33:49.600Z,49.25
2023-03-24T17:36:18.310Z,49.00
2023-03-24T17:38:47.326Z,49.04
2023-03-24T17:41:15.536Z,49.67
2023-03-24T17:43:43.553Z,49.73
2023-03-24T17:46:11.529Z,49.76
2023-03-24T17:48:39.428Z,50.16
2023-03-24T17:51:08.811Z,50.54
2023-03-24T17:53:36.808Z,50.80
2023-03-24T17:56:07.103Z,51.44
2023-03-24T17:58:36.501Z,51.51
2023-03-24T18:01:08.099Z,52.39
2023-03-24T18:03:38.103Z,52.66
2023-03-24T18:06:12.502Z,53.00
2023-03-24T18:08:44.956Z,53.02
2023-03-24T18:11:15.080Z,53.66
2023-03-24T18:13:43.311Z,53.98
2023-03-24T18:16:20.411Z,54.22
2023-03-24T18:18:50.319Z,54.17
2023-03-24T18:21:20.160Z,54.28
2023-03-24T18:23:48.671Z,54.44
2023-03-24T18:26:17.806Z,54.86
2023-03-24T18:28:46.725Z,55.04
2023-03-24T18:31:16.510Z,54.67
2023-03-24T18:33:46.112Z,54.90
2023-03-24T18:36:16.598Z,55.34
2023-03-24T18:38:46.742Z,55.70
2023-03-24T18:41:16.776Z,55.78
2023-03-24T18:43:48.242Z,56.29
2023-03-24T18:46:16.638Z,56.34
2023-03-24T18:48:44.737Z,56.88
2023-03-24T18:51:13.035Z,57.07
2023-03-24T18:53:40.855Z,56.64
2023-03-24T18:56:10.378Z,56.38
2023-03-24T18:58:39.196Z,57.13
2023-03-24T19:01:09.111Z,58.46
2023-03-24T19:03:38.462Z,59.50
2023-03-24T19:06:07.407Z,60.57
2023-03-24T19:08:37.838Z,61.85
2023-03-24T19:11:06.598Z,62.28
2023-03-24T19:13:37.123Z,63.22
2023-03-24T19:16:05.874Z,63.35
2023-03-24T19:18:33.732Z,63.91
2023-03-24T19:21:02.132Z,64.84
2023-03-24T19:23:30.209Z,64.87
2023-03-24T19:25:58.112Z,65.03
2023-03-24T19:28:29.216Z,64.81
2023-03-24T19:30:59.293Z,64.65
2023-03-24T19:33:27.675Z,64.06
2023-03-24T19:35:55.590Z,63.31
2023-03-24T19:38:24.219Z,64.08
2023-03-24T19:40:53.872Z,63.58
2023-03-24T19:43:22.238Z,63.80
2023-03-24T19:45:51.375Z,63.04
2023-03-24T19:48:20.811Z,63.54
2023-03-24T19:50:51.691Z,61.92
2023-03-24T19:53:20.023Z,61.86
2023-03-24T19:55:48.106Z,61.25
2023-03-24T19:58:16.317Z,61.20
2023-03-24T20:00:44.601Z,61.58
2023-03-24T20:03:12.500Z,60.82
2023-03-24T20:05:41.913Z,60.48
2023-03-24T20:08:09.689Z,60.09
2023-03-24T20:10:40.012Z,60.08
2023-03-24T20:13:08.008Z,59.84
2023-03-24T20:15:35.819Z,59.88
2023-03-24T20:18:03.686Z,59.88
2023-03-24T20:20:31.716Z,60.37
2023-03-24T20:23:00.974Z,60.65
2023-03-24T20:25:28.825Z,60.84
2023-03-24T20:27:56.741Z,60.58
2023-03-24T20:30:26.256Z,60.56
2023-03-24T20:32:57.411Z,60.49
2023-03-24T20:35:25.726Z,60.46
2023-03-24T20:37:53.502Z,61.21
2023-03-24T20:40:24.712Z,60.84
2023-03-24T20:42:52.517Z,61.58
2023-03-24T20:45:20.737Z,61.30
2023-03-24T20:47:48.625Z,61.73
2023-03-24T20:50:16.558Z,61.67
2023-03-24T20:52:44.454Z,61.66
2023-03-24T20:55:12.489Z,62.26
2023-03-24T20:57:42.352Z,61.99
2023-03-24T21:00:13.909Z,62.89
2023-03-24T21:02:43.035Z,66.65
2023-03-24T21:05:11.581Z,69.63
2023-03-24T21:07:43.604Z,71.45
2023-03-24T21:10:12.204Z,72.58
2023-03-24T21:12:52.375Z,73.61
2023-03-24T21:15:22.789Z,74.09
2023-03-24T21:17:50.731Z,74.60
2023-03-24T21:20:19.017Z,74.90
2023-03-24T21:22:55.073Z,75.13
2023-03-24T21:25:23.895Z,75.34
2023-03-24T21:27:53.112Z,75.27
2023-03-24T21:30:21.651Z,75.30
2023-03-24T21:32:51.004Z,74.92
2023-03-24T21:35:19.733Z,74.96
2023-03-24T21:37:48.048Z,75.41
2023-03-24T21:40:18.375Z,75.43
2023-03-24T21:42:49.667Z,75.76
2023-03-24T21:45:20.886Z,76.12
2023-03-24T21:47:49.961Z,75.90
2023-03-24T21:50:23.223Z,76.01
2023-03-24T21:52:52.283Z,75.67
2023-03-24T21:55:21.514Z,75.69
2023-03-24T21:57:51.090Z,75.13
2023-03-24T22:00:22.978Z,74.32
2023-03-24T22:02:52.222Z,73.98
2023-03-24T22:05:21.814Z,73.46
2023-03-24T22:07:50.334Z,73.02
2023-03-24T22:10:22.657Z,73.44
2023-03-24T22:12:50.480Z,72.72
2023-03-24T22:15:20.394Z,72.02
2023-03-24T22:17:48.429Z,71.36
2023-03-24T22:20:16.862Z,70.73
2023-03-24T22:22:44.760Z,70.41
2023-03-24T22:25:14.213Z,70.77
2023-03-24T22:27:42.101Z,70.91
2023-03-24T22:30:12.284Z,71.46
2023-03-24T22:32:41.637Z,71.93
2023-03-24T22:35:10.240Z,72.78
2023-03-24T22:37:38.018Z,73.71
2023-03-24T22:40:07.362Z,74.46
2023-03-24T22:42:35.173Z,74.67
2023-03-24T22:45:02.992Z,75.36
2023-03-24T22:47:30.777Z,75.85
2023-03-24T22:49:59.980Z,74.76
2023-03-24T22:52:28.298Z,75.35
2023-03-24T22:54:56.063Z,76.67
2023-03-24T22:57:23.861Z,76.82
2023-03-24T22:59:51.683Z,77.41
2023-03-24T23:02:24.397Z,77.61
2023-03-24T23:04:52.451Z,78.51
2023-03-24T23:07:24.333Z,78.65
2023-03-24T23:09:53.398Z,78.82
2023-03-24T23:12:21.493Z,79.22
2023-03-24T23:14:49.274Z,79.78
2023-03-24T23:17:17.183Z,80.36
2023-03-24T23:19:44.942Z,80.64
2023-03-24T23:22:12.935Z,80.74
2023-03-24T23:24:42.290Z,81.30
2023-03-24T23:27:10.466Z,81.52
2023-03-24T23:29:40.338Z,81.81
2023-03-24T23:32:08.416Z,82.10
2023-03-24T23:34:38.189Z,82.21
2023-03-24T23:37:06.111Z,81.17
2023-03-24T23:39:36.663Z,81.07
2023-03-24T23:42:06.376Z,80.71
2023-03-24T23:44:34.378Z,80.79
2023-03-24T23:47:02.216Z,80.75
2023-03-24T23:49:30.194Z,81.56
2023-03-24T23:51:58.257Z,82.23
2023-03-24T23:54:26.384Z,82.40
2023-03-24T23:56:54.562Z,82.31
2023-03-24T23:59:24.149Z,82.67
